createdAt,value
2017-11-16T00:00:18.916Z,1.40
2017-11-16T00:02:46.521Z,2.03
2017-11-16T00:05:14.062Z,1.60
2017-11-16T00:07:41.605Z,1.80
2017-11-16T00:10:09.204Z,2.13
2017-11-16T00:12:36.867Z,1.50
2017-11-16T00:15:04.496Z,1.93
2017-11-16T00:17:32.078Z,1.83
2017-11-16T00:19:59.704Z,1.43
2017-11-16T00:22:28.032Z,1.70
2017-11-16T00:24:57.126Z,1.83
2017-11-16T00:27:24.685Z,2.00
2017-11-16T00:29:52.271Z,1.60
2017-11-16T00:32:19.830Z,1.37
2017-11-16T00:34:47.374Z,1.40
2017-11-16T00:37:15.008Z,1.37
2017-11-16T00:39:42.575Z,1.57
2017-11-16T00:42:11.034Z,1.47
2017-11-16T00:44:38.917Z,1.50
2017-11-16T00:47:06.525Z,1.47
2017-11-16T00:49:34.880Z,1.30
2017-11-16T00:52:02.451Z,1.60
2017-11-16T00:54:30.071Z,1.27
2017-11-16T00:56:57.707Z,1.00
2017-11-16T00:59:25.367Z,1.40
2017-11-16T01:01:52.957Z,0.90
2017-11-16T01:04:20.520Z,1.10
2017-11-16T01:06:48.133Z,1.80
2017-11-16T01:09:16.440Z,1.10
2017-11-16T01:11:43.986Z,0.93
2017-11-16T01:14:11.568Z,1.00
2017-11-16T01:16:39.181Z,1.00
2017-11-16T01:19:06.816Z,1.27
2017-11-16T01:21:34.395Z,1.27
2017-11-16T01:24:01.952Z,1.30
2017-11-16T01:26:29.610Z,1.10
2017-11-16T01:28:57.174Z,1.00
2017-11-16T01:31:24.771Z,0.93
2017-11-16T01:33:52.370Z,1.20
2017-11-16T01:36:19.936Z,0.90
2017-11-16T01:38:47.503Z,0.90
2017-11-16T01:41:15.088Z,1.07
2017-11-16T01:43:43.448Z,1.20
2017-11-16T01:46:11.013Z,0.80
2017-11-16T01:48:38.577Z,1.10
2017-11-16T01:51:07.040Z,1.40
2017-11-16T01:53:34.604Z,1.10
2017-11-16T01:56:02.217Z,0.60
2017-11-16T01:58:29.799Z,1.03
2017-11-16T02:00:57.354Z,0.70
2017-11-16T02:03:24.937Z,0.80
2017-11-16T02:05:52.513Z,1.20
2017-11-16T02:08:20.077Z,0.70
2017-11-16T02:10:47.671Z,1.03
2017-11-16T02:13:15.266Z,1.20
2017-11-16T02:15:42.816Z,0.73
2017-11-16T02:18:10.398Z,1.10
2017-11-16T02:20:38.002Z,1.60
2017-11-16T02:23:05.636Z,1.00
2017-11-16T02:25:33.235Z,0.90
2017-11-16T02:28:00.780Z,0.83
2017-11-16T02:30:28.469Z,0.80
2017-11-16T02:32:56.059Z,1.60
2017-11-16T02:35:23.595Z,0.80
2017-11-16T02:37:51.230Z,0.80
2017-11-16T02:40:19.533Z,0.90
2017-11-16T02:42:47.121Z,1.00
2017-11-16T02:45:14.688Z,1.33
2017-11-16T02:47:42.397Z,0.80
2017-11-16T02:50:10.002Z,1.00
2017-11-16T02:52:37.816Z,0.80
2017-11-16T02:55:05.387Z,0.90
2017-11-16T02:57:32.934Z,0.57
2017-11-16T03:00:00.554Z,0.83
2017-11-16T03:02:28.116Z,0.83
2017-11-16T03:04:55.687Z,0.80
2017-11-16T03:07:24.015Z,0.87
2017-11-16T03:09:51.594Z,0.90
2017-11-16T03:12:19.146Z,0.70
2017-11-16T03:14:47.474Z,0.77
2017-11-16T03:17:15.799Z,0.70
2017-11-16T03:19:43.379Z,0.80
2017-11-16T03:22:10.943Z,0.67
2017-11-16T03:24:38.519Z,0.77
2017-11-16T03:27:06.894Z,0.60
2017-11-16T03:29:35.215Z,0.60
2017-11-16T03:32:03.364Z,0.60
2017-11-16T03:34:31.696Z,0.73
2017-11-16T03:36:59.244Z,0.63
2017-11-16T03:39:26.841Z,0.80
2017-11-16T03:41:54.422Z,0.80
2017-11-16T03:44:22.755Z,0.60
2017-11-16T03:46:50.346Z,0.80
2017-11-16T03:49:18.967Z,0.83
2017-11-16T03:51:46.521Z,0.57
2017-11-16T03:54:14.167Z,0.80
2017-11-16T03:56:41.750Z,0.67
2017-11-16T03:59:09.317Z,0.40
2017-11-16T04:01:36.869Z,0.50
2017-11-16T04:04:04.495Z,0.57
2017-11-16T04:06:32.941Z,0.60
2017-11-16T04:09:00.625Z,0.60
2017-11-16T04:11:28.154Z,0.70
2017-11-16T04:13:55.726Z,0.60
2017-11-16T04:16:23.368Z,0.50
2017-11-16T04:18:51.042Z,0.40
2017-11-16T04:21:18.665Z,1.03
2017-11-16T04:23:46.247Z,0.50
2017-11-16T04:26:13.795Z,0.60
2017-11-16T04:28:41.571Z,0.70
2017-11-16T04:31:09.172Z,0.60
2017-11-16T04:33:37.512Z,0.80
2017-11-16T04:36:05.081Z,0.60
2017-11-16T04:38:32.673Z,0.60
2017-11-16T04:41:01.088Z,0.53
2017-11-16T04:43:28.699Z,0.50
2017-11-16T04:45:56.293Z,0.70
2017-11-16T04:48:23.877Z,0.70
2017-11-16T04:50:51.469Z,0.80
2017-11-16T04:53:19.049Z,0.70
2017-11-16T04:55:46.633Z,0.60
2017-11-16T04:58:14.212Z,0.40
2017-11-16T05:00:41.761Z,0.50
2017-11-16T05:03:09.360Z,0.40
2017-11-16T05:05:36.957Z,0.50
2017-11-16T05:08:05.294Z,0.47
2017-11-16T05:10:32.918Z,0.50
2017-11-16T05:13:00.499Z,0.90
2017-11-16T05:15:28.156Z,0.50
2017-11-16T05:17:55.691Z,0.70
2017-11-16T05:20:23.514Z,0.50
2017-11-16T05:22:51.106Z,0.60
2017-11-16T05:25:19.428Z,0.53
2017-11-16T05:27:47.026Z,0.50
2017-11-16T05:30:14.660Z,0.50
2017-11-16T05:32:42.449Z,0.67
2017-11-16T05:35:10.018Z,0.50
2017-11-16T05:37:37.626Z,0.50
2017-11-16T05:40:05.240Z,0.50
2017-11-16T05:42:33.662Z,0.70
2017-11-16T05:45:01.662Z,0.43
2017-11-16T05:47:29.288Z,0.50
2017-11-16T05:49:56.838Z,0.60
2017-11-16T05:52:24.519Z,0.57
2017-11-16T05:54:52.141Z,0.60
2017-11-16T05:57:20.472Z,0.50
2017-11-16T05:59:48.077Z,0.70
2017-11-16T06:02:16.391Z,0.50
2017-11-16T06:04:43.948Z,0.50
2017-11-16T06:07:11.520Z,0.70
2017-11-16T06:09:39.126Z,0.97
2017-11-16T06:12:07.514Z,0.60
2017-11-16T06:14:35.961Z,0.50
2017-11-16T06:17:03.504Z,0.70
2017-11-16T06:19:31.119Z,0.80
2017-11-16T06:21:59.835Z,0.60
2017-11-16T06:24:27.465Z,0.83
2017-11-16T06:26:55.844Z,0.73
2017-11-16T06:29:24.162Z,0.83
2017-11-16T06:31:51.761Z,0.40
2017-11-16T06:34:19.336Z,0.67
2017-11-16T06:36:47.745Z,0.60
2017-11-16T06:39:15.405Z,0.60
2017-11-16T06:41:43.036Z,0.57
2017-11-16T06:44:11.357Z,0.67
2017-11-16T06:46:39.214Z,0.87
2017-11-16T06:49:06.784Z,0.70
2017-11-16T06:51:34.356Z,0.60
2017-11-16T06:54:01.969Z,0.50
2017-11-16T06:56:30.343Z,0.70
2017-11-16T06:58:58.624Z,0.90
2017-11-16T07:01:27.004Z,0.80
2017-11-16T07:03:55.364Z,0.63
2017-11-16T07:06:22.964Z,1.30
2017-11-16T07:08:50.501Z,4.93
2017-11-16T07:11:18.089Z,3.07
2017-11-16T07:13:45.671Z,1.10
2017-11-16T07:16:13.247Z,2.20
2017-11-16T07:18:40.835Z,2.00
2017-11-16T07:21:09.138Z,1.90
2017-11-16T07:23:36.732Z,1.10
2017-11-16T07:26:04.282Z,1.73
2017-11-16T07:28:31.880Z,1.97
2017-11-16T07:30:59.502Z,1.83
2017-11-16T07:33:27.864Z,2.00
2017-11-16T07:35:55.522Z,2.40
2017-11-16T07:38:23.052Z,1.50
2017-11-16T07:40:54.255Z,1.30
2017-11-16T07:43:21.970Z,1.40
2017-11-16T07:45:49.661Z,1.87
2017-11-16T07:48:17.242Z,1.27
2017-11-16T07:50:44.816Z,2.20
2017-11-16T07:53:12.406Z,1.73
2017-11-16T07:55:40.781Z,1.83
2017-11-16T07:58:09.120Z,1.57
2017-11-16T08:00:36.735Z,1.87
2017-11-16T08:03:04.289Z,1.30
2017-11-16T08:05:31.857Z,2.47
2017-11-16T08:07:59.461Z,2.10
2017-11-16T08:10:27.055Z,1.37
2017-11-16T08:12:55.412Z,1.63
2017-11-16T08:15:23.025Z,2.10
2017-11-16T08:17:50.609Z,1.80
2017-11-16T08:20:18.191Z,1.50
2017-11-16T08:22:45.763Z,1.53
2017-11-16T08:25:13.371Z,1.40
2017-11-16T08:27:40.934Z,1.90
2017-11-16T08:30:09.223Z,1.97
2017-11-16T08:32:36.778Z,1.00
2017-11-16T08:35:04.352Z,1.33
2017-11-16T08:37:31.882Z,2.10
2017-11-16T08:39:59.443Z,1.23
2017-11-16T08:42:27.088Z,1.77
2017-11-16T08:44:54.617Z,1.63
2017-11-16T08:47:22.976Z,1.67
2017-11-16T08:49:52.036Z,1.67
2017-11-16T08:52:19.557Z,1.83
2017-11-16T08:54:47.840Z,2.73
2017-11-16T08:57:15.401Z,1.70
2017-11-16T08:59:43.806Z,1.57
2017-11-16T09:02:11.352Z,2.07
2017-11-16T09:04:38.908Z,1.50
2017-11-16T09:07:06.468Z,1.90
2017-11-16T09:09:33.970Z,1.10
2017-11-16T09:12:01.673Z,1.90
2017-11-16T09:14:29.997Z,1.30
2017-11-16T09:16:57.675Z,1.60
2017-11-16T09:19:25.244Z,2.10
2017-11-16T09:21:52.766Z,1.80
2017-11-16T09:24:20.468Z,1.90
2017-11-16T09:26:48.012Z,2.10
2017-11-16T09:29:15.674Z,1.70
2017-11-16T09:31:43.259Z,1.50
2017-11-16T09:34:10.770Z,1.57
2017-11-16T09:36:38.314Z,1.63
2017-11-16T09:39:05.841Z,1.80
2017-11-16T09:41:34.170Z,1.60
2017-11-16T09:44:01.711Z,1.57
2017-11-16T09:46:29.248Z,2.00
2017-11-16T09:48:57.529Z,1.87
2017-11-16T09:51:25.077Z,2.10
2017-11-16T09:53:53.665Z,2.67
2017-11-16T09:56:21.944Z,1.90
2017-11-16T09:58:49.518Z,2.10
2017-11-16T10:01:17.086Z,1.50
2017-11-16T10:03:44.645Z,2.10
2017-11-16T10:06:12.168Z,1.63
2017-11-16T10:08:40.521Z,1.93
2017-11-16T10:11:09.550Z,1.60
2017-11-16T10:13:37.841Z,1.60
2017-11-16T10:16:05.412Z,1.80
2017-11-16T10:18:32.998Z,2.47
2017-11-16T10:21:00.552Z,2.07
2017-11-16T10:23:28.083Z,1.20
2017-11-16T10:25:55.721Z,1.33
2017-11-16T10:28:24.019Z,2.70
2017-11-16T10:30:51.591Z,2.00
2017-11-16T10:33:19.136Z,1.53
2017-11-16T10:35:46.706Z,1.30
2017-11-16T10:38:14.220Z,1.77
2017-11-16T10:40:41.779Z,1.77
2017-11-16T10:43:09.420Z,1.77
2017-11-16T10:45:38.553Z,1.77
2017-11-16T10:48:06.854Z,2.47
2017-11-16T10:50:34.388Z,1.50
2017-11-16T10:53:02.748Z,1.70
2017-11-16T10:55:30.309Z,1.67
2017-11-16T10:57:57.852Z,1.80
2017-11-16T11:00:25.458Z,1.47
2017-11-16T11:02:53.105Z,1.77
2017-11-16T11:05:21.519Z,1.57
2017-11-16T11:07:49.058Z,1.57
2017-11-16T11:10:16.726Z,1.73
2017-11-16T11:12:44.268Z,1.30
2017-11-16T11:15:12.586Z,1.37
2017-11-16T11:17:40.132Z,1.80
2017-11-16T11:20:07.687Z,1.33
2017-11-16T11:22:35.224Z,1.40
2017-11-16T11:25:03.519Z,1.37
2017-11-16T11:27:31.110Z,1.33
2017-11-16T11:29:58.658Z,1.23
2017-11-16T11:32:26.181Z,1.60
2017-11-16T11:34:54.500Z,1.47
2017-11-16T11:37:22.019Z,1.50
2017-11-16T11:39:50.583Z,1.20
2017-11-16T11:42:18.904Z,1.10
2017-11-16T11:44:46.640Z,1.47
2017-11-16T11:47:14.893Z,1.07
2017-11-16T11:49:42.411Z,0.90
2017-11-16T11:52:10.065Z,1.40
2017-11-16T11:54:37.637Z,1.33
2017-11-16T11:57:05.353Z,1.07
2017-11-16T11:59:33.650Z,1.30
2017-11-16T12:02:01.206Z,1.63
2017-11-16T12:04:28.720Z,1.07
2017-11-16T12:06:56.334Z,0.90
2017-11-16T12:09:23.866Z,0.90
2017-11-16T12:11:52.179Z,0.93
2017-11-16T12:14:19.731Z,1.23
2017-11-16T12:16:47.267Z,0.93
2017-11-16T12:19:15.597Z,1.17
2017-11-16T12:21:43.539Z,1.33
2017-11-16T12:24:11.177Z,1.70
2017-11-16T12:26:39.597Z,1.20
2017-11-16T12:29:07.144Z,1.93
2017-11-16T12:31:34.687Z,0.90
2017-11-16T12:34:02.380Z,1.10
2017-11-16T12:36:30.330Z,1.03
2017-11-16T12:38:57.867Z,1.00
2017-11-16T12:41:25.432Z,1.20
2017-11-16T12:43:52.988Z,0.70
2017-11-16T12:46:20.515Z,1.00
2017-11-16T12:48:48.041Z,1.20
2017-11-16T12:51:15.649Z,1.13
2017-11-16T12:53:43.947Z,1.40
2017-11-16T12:56:11.555Z,0.80
2017-11-16T12:58:39.129Z,1.00
2017-11-16T13:01:08.149Z,1.30
2017-11-16T13:03:35.675Z,1.30
2017-11-16T13:06:03.249Z,1.20
2017-11-16T13:08:30.943Z,1.10
2017-11-16T13:10:58.507Z,1.20
2017-11-16T13:13:26.042Z,1.00
2017-11-16T13:15:54.372Z,1.13
2017-11-16T13:18:21.911Z,0.80
2017-11-16T13:20:49.477Z,0.77
2017-11-16T13:23:17.359Z,1.03
2017-11-16T13:25:44.883Z,0.73
2017-11-16T13:28:12.469Z,1.10
2017-11-16T13:30:40.221Z,1.40
2017-11-16T13:33:07.760Z,1.37
2017-11-16T13:35:35.293Z,1.23
2017-11-16T13:38:03.639Z,1.70
2017-11-16T13:40:31.322Z,1.40
2017-11-16T13:42:58.871Z,1.67
2017-11-16T13:45:27.178Z,1.90
2017-11-16T13:47:55.502Z,2.30
2017-11-16T13:50:23.032Z,1.90
2017-11-16T13:52:50.642Z,2.50
2017-11-16T13:55:18.251Z,2.83
2017-11-16T13:57:45.817Z,1.80
2017-11-16T14:00:13.404Z,3.10
2017-11-16T14:02:40.942Z,1.80
2017-11-16T14:05:08.492Z,2.67
2017-11-16T14:07:36.094Z,2.00
2017-11-16T14:10:03.679Z,1.87
2017-11-16T14:12:31.241Z,2.20
2017-11-16T14:14:58.939Z,2.60
2017-11-16T14:17:26.510Z,3.40
2017-11-16T14:19:54.070Z,2.43
2017-11-16T14:22:21.729Z,2.30
2017-11-16T14:24:49.271Z,2.80
2017-11-16T14:27:17.594Z,2.30
2017-11-16T14:29:45.166Z,2.47
2017-11-16T14:32:14.230Z,3.37
2017-11-16T14:34:41.788Z,2.97
2017-11-16T14:37:09.328Z,2.40
2017-11-16T14:39:36.906Z,2.83
2017-11-16T14:42:04.462Z,2.50
2017-11-16T14:44:32.032Z,2.70
2017-11-16T14:46:59.609Z,3.10
2017-11-16T14:49:27.172Z,2.40
2017-11-16T14:51:54.773Z,2.80
2017-11-16T14:54:23.078Z,2.93
2017-11-16T14:56:50.643Z,2.40
2017-11-16T14:59:18.268Z,2.30
2017-11-16T15:01:46.738Z,2.90
2017-11-16T15:04:15.098Z,2.43
2017-11-16T15:06:43.638Z,2.90
2017-11-16T15:09:11.230Z,3.23
2017-11-16T15:11:38.832Z,2.90
2017-11-16T15:14:07.212Z,3.30
2017-11-16T15:16:35.600Z,2.60
2017-11-16T15:19:03.404Z,3.40
2017-11-16T15:21:31.038Z,2.70
2017-11-16T15:23:58.757Z,2.13
2017-11-16T15:26:27.320Z,2.90
2017-11-16T15:28:54.907Z,2.67
2017-11-16T15:31:23.220Z,3.20
2017-11-16T15:33:50.955Z,2.80
2017-11-16T15:36:19.281Z,2.50
2017-11-16T15:38:47.232Z,2.80
2017-11-16T15:41:14.989Z,2.00
2017-11-16T15:43:42.610Z,3.03
2017-11-16T15:46:10.190Z,3.07
2017-11-16T15:48:38.576Z,3.37
2017-11-16T15:51:06.144Z,3.30
2017-11-16T15:53:33.780Z,3.07
2017-11-16T15:56:02.404Z,3.10
2017-11-16T15:58:29.984Z,2.60
2017-11-16T16:00:58.184Z,3.17
2017-11-16T16:03:26.211Z,3.07
2017-11-16T16:05:54.556Z,2.47
2017-11-16T16:08:22.938Z,2.17
2017-11-16T16:10:51.036Z,2.43
2017-11-16T16:13:18.614Z,2.60
2017-11-16T16:15:46.839Z,2.13
2017-11-16T16:18:15.247Z,3.50
2017-11-16T16:20:43.250Z,1.87
2017-11-16T16:23:10.881Z,3.13
2017-11-16T16:25:38.465Z,3.17
2017-11-16T16:28:06.419Z,3.20
2017-11-16T16:30:34.052Z,3.00
2017-11-16T16:33:01.665Z,2.63
2017-11-16T16:35:29.358Z,2.93
2017-11-16T16:37:57.257Z,3.00
2017-11-16T16:40:24.891Z,5.67
2017-11-16T16:42:52.601Z,2.60
2017-11-16T16:45:20.238Z,2.50
2017-11-16T16:47:47.924Z,3.17
2017-11-16T16:50:17.394Z,3.63
2017-11-16T16:52:45.003Z,3.40
2017-11-16T16:55:12.617Z,3.40
2017-11-16T16:57:40.353Z,2.57
2017-11-16T17:00:09.479Z,3.33
2017-11-16T17:02:37.678Z,2.90
2017-11-16T17:05:05.328Z,3.80
2017-11-16T17:07:32.934Z,3.80
2017-11-16T17:10:02.874Z,3.17
2017-11-16T17:12:31.251Z,2.83
2017-11-16T17:14:59.975Z,3.10
2017-11-16T17:17:27.557Z,3.00
2017-11-16T17:19:55.157Z,3.03
2017-11-16T17:22:23.479Z,2.70
2017-11-16T17:24:51.059Z,2.77
2017-11-16T17:27:18.615Z,3.37
2017-11-16T17:29:46.180Z,2.70
2017-11-16T17:32:13.779Z,2.80
2017-11-16T17:34:42.116Z,2.00
2017-11-16T17:37:09.700Z,2.17
2017-11-16T17:39:38.057Z,2.60
2017-11-16T17:42:05.687Z,3.40
2017-11-16T17:44:33.281Z,3.00
2017-11-16T17:47:00.847Z,2.63
2017-11-16T17:49:28.515Z,3.13
2017-11-16T17:51:56.335Z,2.20
2017-11-16T17:54:23.919Z,2.70
2017-11-16T17:56:51.469Z,3.30
2017-11-16T17:59:19.079Z,2.80
2017-11-16T18:01:47.427Z,2.53
2017-11-16T18:04:15.763Z,3.13
2017-11-16T18:06:43.346Z,3.03
2017-11-16T18:09:10.911Z,2.83
2017-11-16T18:11:38.503Z,2.63
2017-11-16T18:14:06.087Z,3.10
2017-11-16T18:16:33.795Z,2.80
2017-11-16T18:19:01.400Z,2.40
2017-11-16T18:21:29.767Z,1.53
2017-11-16T18:23:58.095Z,2.13
2017-11-16T18:26:25.833Z,1.80
2017-11-16T18:28:53.390Z,2.43
2017-11-16T18:31:20.962Z,2.60
2017-11-16T18:33:48.558Z,3.10
2017-11-16T18:36:16.194Z,2.67
2017-11-16T18:38:43.761Z,2.57
2017-11-16T18:41:11.401Z,2.87
2017-11-16T18:43:39.059Z,2.37
2017-11-16T18:46:06.644Z,2.40
2017-11-16T18:48:34.293Z,2.00
2017-11-16T18:51:01.897Z,2.23
2017-11-16T18:53:29.462Z,2.50
2017-11-16T18:55:58.737Z,2.47
2017-11-16T18:58:26.365Z,2.10
2017-11-16T19:00:53.923Z,1.20
2017-11-16T19:03:21.525Z,1.60
2017-11-16T19:05:49.111Z,1.90
2017-11-16T19:08:17.471Z,1.80
2017-11-16T19:10:45.016Z,2.70
2017-11-16T19:13:12.614Z,1.37
2017-11-16T19:15:41.113Z,1.60
2017-11-16T19:18:08.662Z,1.80
2017-11-16T19:20:37.025Z,1.20
2017-11-16T19:23:04.679Z,1.50
2017-11-16T19:25:33.373Z,1.73
2017-11-16T19:28:01.725Z,1.17
2017-11-16T19:30:29.309Z,1.17
2017-11-16T19:32:58.441Z,1.63
2017-11-16T19:35:26.160Z,2.10
2017-11-16T19:37:53.739Z,1.60
2017-11-16T19:40:22.131Z,1.50
2017-11-16T19:42:50.658Z,1.83
2017-11-16T19:45:18.273Z,1.30
2017-11-16T19:47:46.592Z,1.10
2017-11-16T19:50:14.168Z,3.17
2017-11-16T19:52:41.787Z,1.20
2017-11-16T19:55:09.345Z,1.03
2017-11-16T19:57:36.949Z,2.00
2017-11-16T20:02:31.829Z,1.83
2017-11-16T20:04:59.400Z,2.13
2017-11-16T20:07:26.982Z,1.23
2017-11-16T20:09:54.574Z,1.10
2017-11-16T20:12:22.943Z,1.20
2017-11-16T20:14:52.207Z,1.03
2017-11-16T20:17:19.779Z,1.00
2017-11-16T20:19:47.391Z,1.70
2017-11-16T20:22:15.021Z,1.50
2017-11-16T20:24:43.380Z,1.60
2017-11-16T20:27:10.977Z,1.70
2017-11-16T20:29:39.587Z,1.20
2017-11-16T20:32:07.203Z,1.30
2017-11-16T20:34:34.828Z,0.97
2017-11-16T20:37:09.133Z,1.00
2017-11-16T20:39:42.523Z,1.93
2017-11-16T20:42:15.783Z,1.03
2017-11-16T20:45:00.742Z,1.13
2017-11-16T20:47:40.795Z,0.90
2017-11-16T20:50:14.649Z,0.90
2017-11-16T20:52:44.835Z,0.97
2017-11-16T20:55:12.427Z,1.37
2017-11-16T20:57:40.033Z,1.00
2017-11-16T21:00:08.420Z,1.47
2017-11-16T21:02:36.799Z,0.90
2017-11-16T21:05:05.219Z,0.70
2017-11-16T21:07:32.820Z,1.00
2017-11-16T21:10:00.437Z,0.80
2017-11-16T21:12:28.056Z,1.60
2017-11-16T21:14:56.456Z,0.93
2017-11-16T21:17:24.796Z,0.90
2017-11-16T21:19:52.377Z,1.03
2017-11-16T21:22:20.749Z,0.80
2017-11-16T21:24:48.387Z,0.70
2017-11-16T21:27:16.115Z,0.97
2017-11-16T21:29:43.685Z,0.67
2017-11-16T21:32:11.346Z,0.73
2017-11-16T21:34:38.921Z,0.70
2017-11-16T21:37:06.466Z,0.97
2017-11-16T21:39:34.057Z,0.90
2017-11-16T21:42:01.624Z,0.87
2017-11-16T21:44:29.258Z,1.07
2017-11-16T21:46:56.867Z,0.70
2017-11-16T21:49:25.209Z,0.83
2017-11-16T21:51:52.762Z,0.97
2017-11-16T21:54:20.351Z,0.90
2017-11-16T21:56:47.930Z,1.03
2017-11-16T21:59:16.301Z,0.90
2017-11-16T22:01:44.670Z,0.70
2017-11-16T22:04:12.217Z,0.67
2017-11-16T22:06:39.805Z,0.50
2017-11-16T22:09:08.138Z,0.57
2017-11-16T22:11:35.721Z,0.67
2017-11-16T22:14:03.292Z,0.50
2017-11-16T22:16:30.849Z,0.70
2017-11-16T22:18:58.490Z,0.70
2017-11-16T22:21:26.027Z,0.60
2017-11-16T22:23:53.796Z,0.50
2017-11-16T22:26:21.391Z,0.50
2017-11-16T22:28:48.959Z,0.83
2017-11-16T22:31:17.296Z,0.50
2017-11-16T22:33:44.999Z,0.80
2017-11-16T22:36:13.610Z,0.53
2017-11-16T22:38:41.284Z,0.70
2017-11-16T22:41:08.904Z,0.60
2017-11-16T22:43:36.470Z,0.50
2017-11-16T22:46:04.816Z,0.70
2017-11-16T22:48:32.432Z,0.60
2017-11-16T22:50:59.993Z,0.60
2017-11-16T22:53:27.552Z,0.60
2017-11-16T22:55:55.289Z,0.70
2017-11-16T22:58:23.108Z,0.50
2017-11-16T23:00:50.868Z,0.60
2017-11-16T23:03:18.419Z,0.60
2017-11-16T23:05:46.123Z,0.40
2017-11-16T23:08:13.693Z,0.40
2017-11-16T23:10:41.229Z,0.60
2017-11-16T23:13:08.792Z,0.53
2017-11-16T23:15:36.400Z,0.70
2017-11-16T23:18:03.969Z,0.60
2017-11-16T23:20:31.545Z,0.60
2017-11-16T23:22:59.162Z,0.60
2017-11-16T23:25:27.488Z,0.50
2017-11-16T23:27:55.048Z,0.70
2017-11-16T23:30:22.592Z,0.43
2017-11-16T23:32:50.135Z,0.40
2017-11-16T23:35:17.751Z,0.60
2017-11-16T23:37:45.285Z,0.70
2017-11-16T23:40:12.856Z,0.40
2017-11-16T23:42:40.444Z,0.50
2017-11-16T23:45:08.818Z,0.50
2017-11-16T23:47:36.484Z,0.40
2017-11-16T23:50:04.192Z,0.50
2017-11-16T23:52:31.766Z,0.57
2017-11-16T23:54:59.330Z,0.50
2017-11-16T23:57:26.938Z,0.47
2017-11-16T23:59:55.347Z,0.50
